Talmage, Nebraska
Current Conditions -  °F | °C
As of 7:35 AM on Friday 28 Nov 2014 (Local Time) from KAFK Reporting Station
Clear Clear  
Wind Chill: 18°   Ceiling: Unl
Heat Index: 27°   Visibility: 10mi
Dew Point: 21°   Wind: 8mph
Humidity: 80%   Direction: 190°S
Pressure: 29.91"   Gusts: NA
Location:  40.53°N, 96.02°W
Report Text: KAFK 281335Z AUTO 19007KT 10SM CLR M03/M06 A2991 RMK AO2 T10301060
Loading
Personal Weather Stations






























Interactive Weather Map New forecast layout! Learn more

10-Day Weather Forecast

Advertisements
Track Severe Weather on mobile